• Join FlightAware (Why Join?)
  • Login
  • US Flag 
04:49PM EDT


 

Airport Tracker/Info


-or-


 

Live Flight TrackerFlight Track Log ✈ AWI3704 ✈ 05-Jul-2013 ✈ KDCA - KALB

Flight Track Log - Related Links

Times and Time Zones

All times are in EDT time to prevent confusion due to time zone crossing. See the AWI3704 flight status page for this flight to view local times or setup timezone preferences in your user account.

Time Position Orientation Groundspeed Altitude Reporting Facility
EDT Latitude Longitude Course Direction KTS MPH feet Rate Location/Type
05:42PM 38.8192 -77.0358 83° East 147 169 1,400  Level Washington Center
05:43PM 38.7500 -77.0167 168° South 229 264 3,700 1,860 Climbing Potomac TRACON
05:44PM 38.9818 -76.6531 57° Northeast  Level FlightAware Approximate
05:44PM 38.7500 -76.9333 90° East 296 341 5,400  Level Potomac TRACON
05:45PM 39.0305 -76.5252 67° East  Level FlightAware Approximate
05:45PM 38.8333 -76.9000 17° North 303 349 8,300  Level Potomac TRACON
05:46PM 39.0817 -76.3984 61° Northeast  Level FlightAware Approximate
05:47PM 39.1167 -76.2669 90° East  Level FlightAware Approximate
05:47PM 38.9817 -76.8600 12° North 339 390 12,100  Level Washington Center
05:48PM 39.1576 -76.1412 83° East  Level FlightAware Approximate
05:48PM 39.0719 -76.8133 22° Northeast 333 383 13,200  Level Washington Center
05:49PM 39.0961 -76.6828 77° East 311 358 14,200 1,140 Climbing Washington Center
05:50PM 39.1117 -76.5467 82° East 340 391 15,600 1,320 Climbing Washington Center
05:51PM 39.1294 -76.4050 81° East 368 423 16,900 1,140 Climbing Washington Center
05:52PM 39.1469 -76.2608 81° East 388 447 17,900 660 Climbing Washington Center
05:53PM 39.1622 -76.1269 82° East 408 470 18,300 660 Climbing Washington Center
05:54PM 39.1817 -75.9744 81° East 421 484 19,300 900 Climbing Washington Center
05:55PM 39.2278 -75.8356 67° East 428 493 20,200 780 Climbing Washington Center
05:56PM 39.3156 -75.7231 45° Northeast 422 486 20,900 660 Climbing Washington Center
05:57PM 39.4053 -75.6078 45° Northeast 433 498 21,600 720 Climbing Washington Center
05:58PM 39.4947 -75.4919 45° Northeast 438 504 22,400 840 Climbing Washington Center
05:59PM 39.5822 -75.3761 46° Northeast 444 511 23,300 780 Climbing Washington Center
06:01PM 39.7667 -75.1164 47° Northeast 441 507 25,000 480 Climbing New York Center
06:02PM 39.8525 -74.9944 47° Northeast 455 524 25,000  Level New York Center
06:03PM 39.9403 -74.8697 47° Northeast 460 529 25,000  Level New York Center
06:04PM 40.0300 -74.7450 47° Northeast 455 524 25,000  Level New York Center
06:05PM 40.1261 -74.6094 47° Northeast 460 529 25,000  Level New York Center
06:06PM 40.2158 -74.4811 48° Northeast 460 529 25,000  Level New York Center
06:07PM 40.3169 -74.3750 39° Northeast 460 529 25,000 -300 Level New York Center
06:08PM 40.4161 -74.2631 41° Northeast 460 529 24,500 -540 Descending New York Center
06:09PM 40.5194 -74.1536 39° Northeast 465 535 24,000 -180 Descending New York Center
06:12PM 40.7486 -73.9139 38° Northeast 460 529 24,000  Level Boston Center
06:13PM 40.8436 -73.8036 41° Northeast 454 522 24,000 -360 Level Boston Center
06:14PM 40.9531 -73.7181 31° Northeast 449 517 23,300 -540 Descending Boston Center
06:15PM 41.0642 -73.6542 23° Northeast 438 504 23,000 -600 Descending Boston Center
06:16PM 41.1733 -73.5900 24° Northeast 431 496 22,200 -1,320 Descending Boston Center
06:17PM 41.2861 -73.5561 13° North 406 467 20,400 -1,800 Descending Boston Center
06:18PM 41.3883 -73.5497 North 406 467 18,700 -1,200 Descending Boston Center
06:19PM 41.5072 -73.5461 North 396 456 18,000 -360 Descending Boston Center
06:20PM 41.6011 -73.5422 North 382 440 18,000 -600 Level Boston Center
06:21PM 41.7156 -73.5358 North 373 429 16,900 -1,440 Descending Boston Center
06:22PM 41.8033 -73.5347 North 360 414 15,200 -1,860 Descending Boston Center
06:22PM 41.8678 -73.5328 North 361 415 14,100 -1,860 Descending Boston Center
06:23PM 41.9678 -73.5319 360° North 357 411 12,300 -1,620 Descending Boston Center
06:24PM 42.0700 -73.5281 North 347 399 10,900 -720 Descending Boston Center
06:25PM 42.1617 -73.5492 350° North 328 377 10,900  Level Boston Center
06:26PM 42.2508 -73.5872 342° North 333 383 10,900 -540 Level Boston Center
06:27PM 42.3297 -73.6253 340° North 301 346 9,900 -1,380 Descending Boston Center
06:28PM 42.4064 -73.6547 344° North 277 319 8,100 -1,860 Descending Boston Center
06:29PM 42.4811 -73.6789 347° North 275 316 6,200 -1,800 Descending Boston Center
06:30PM 42.5519 -73.6972 349° North 280 322 4,700 -1,200 Descending Boston Center
06:31PM 42.6267 -73.7072 354° North 272 313 3,900 -900 Descending Boston Center
06:32PM 42.7081 -73.7117 358° North 274 315 3,000 -960 Descending Boston Center
06:33PM 42.7850 -73.7161 358° North 240 276 1,900 -1,020 Descending Boston Center